Create Tblcommutelog Verified Points Advance Search
| # | Trip ID | Id Commuter | Trip Date | Trip Num | Current Lat | Current Lng | Delta Distance | Current Time | Activity | Activity Confidence | Current Speed | |
|---|---|---|---|---|---|---|---|---|---|---|---|---|
| 71961 | 250420_781117_16648788_1707 | 781117 | (not set) | (not set) | 38.862147928921 | -77.058060805133 | 4.1111 | 2025-04-20 21:37:49.193 | still | 33 | -0.44703925898772 | |
| 71962 | 250420_780832_0_1735 | 780832 | (not set) | (not set) | 39.048639926173 | -77.113435283102 | 0.3635 | 2025-04-20 21:38:10.79 | in_vehicle | 100 | -0.44703925898772 | |
| 71963 | 250420_780832_0_1735 | 780832 | (not set) | (not set) | 39.049010560884 | -77.113275993687 | 1.0485 | 2025-04-20 21:38:10.838 | in_vehicle | 100 | 5.2661224708754 | |
| 71964 | 250420_781117_16648788_1707 | 781117 | (not set) | (not set) | 38.862023666396 | -77.057750612718 | 4.1111 | 2025-04-20 21:38:14.044 | in_vehicle | 100 | -0.44703925898772 | |
| 71965 | 250420_781117_16648788_1707 | 781117 | (not set) | (not set) | 38.869618436307 | -77.053961389381 | 5.3468 | 2025-04-20 21:40:00.915 | in_vehicle | 100 | -0.44703925898772 | |
| 71966 | 250420_781117_16648788_1707 | 781117 | (not set) | (not set) | 38.869679884849 | -77.053761647152 | 5.3468 | 2025-04-20 21:40:01.195 | in_vehicle | 100 | -0.44703925898772 | |
| 71967 | 250420_781117_16648788_1707 | 781117 | (not set) | (not set) | 38.869618436307 | -77.053961389381 | 5.3468 | 2025-04-20 21:40:14.642 | in_vehicle | 100 | -0.44703925898772 | |
| 71968 | 250420_780832_0_1735 | 780832 | (not set) | (not set) | 38.98440160764 | -77.094583293913 | 5.6707 | 2025-04-20 21:47:14.622 | in_vehicle | 100 | -0.44703925898772 | |
| 71969 | 250420_780832_0_1735 | 780832 | (not set) | (not set) | 38.968158797454 | -77.088310076039 | 5.6707 | 2025-04-20 21:47:26.464 | in_vehicle | 100 | -0.44703925898772 | |
| 71970 | 250420_780832_0_1735 | 780832 | (not set) | (not set) | 38.978333099175 | -77.09223978238 | 5.6707 | 2025-04-20 21:47:26.702 | in_vehicle | 100 | -0.44703925898772 | |
| 71971 | 250420_780832_0_1735 | 780832 | (not set) | (not set) | 38.950593057461 | -77.080723764317 | 5.6707 | 2025-04-20 21:49:20.838 | in_vehicle | 100 | -0.44703925898772 | |
| 71972 | 250420_780832_0_1735 | 780832 | (not set) | (not set) | 38.949332926006 | -77.080110856582 | 5.6707 | 2025-04-20 21:49:24.938 | still | 33 | -0.44703925898772 | |
| 71973 | 250420_781117_16648788_1707 | 781117 | (not set) | (not set) | 38.886209326886 | -77.021562211198 | 7.4361 | 2025-04-20 21:50:15.733 | in_vehicle | 100 | -0.44703925898772 | |
| 71974 | 250420_781117_16648788_1707 | 781117 | (not set) | (not set) | 38.886209326886 | -77.021562211198 | 7.4361 | 2025-04-20 21:50:15.742 | in_vehicle | 100 | -0.44703925898772 | |
| 71975 | 250420_781117_16648788_1707 | 781117 | (not set) | (not set) | 38.912030592727 | -77.0236506688 | 7.4361 | 2025-04-20 21:50:35.88 | still | 33 | -0.44703925898772 | |
| 71976 | 250420_780832_0_1735 | 780832 | (not set) | (not set) | 38.98440160764 | -77.094583293913 | 5.6707 | 2025-04-20 21:50:40.695 | in_vehicle | 100 | -0.44703925898772 | |
| 71977 | 250420_780832_0_1735 | 780832 | (not set) | (not set) | 38.948164267689 | -77.079542439816 | 5.6707 | 2025-04-20 21:50:40.737 | in_vehicle | 100 | -0.44703925898772 | |
| 71978 | 250420_780832_0_1735 | 780832 | (not set) | (not set) | 38.953355295804 | -77.082280992872 | 5.6707 | 2025-04-20 21:51:05.003 | in_vehicle | 100 | -0.44703925898772 | |
| 71979 | 250420_780832_0_1735 | 780832 | (not set) | (not set) | 38.956053817313 | -77.0837046115 | 5.6707 | 2025-04-20 21:51:12.895 | in_vehicle | 100 | -0.44703925898772 | |
| 71980 | 250420_781117_16648788_1707 | 781117 | (not set) | (not set) | 38.91160805889 | -77.023531191245 | 7.4361 | 2025-04-20 21:51:16.962 | in_vehicle | 100 | -0.44703925898772 |